Portada
METAR-TAF:

METAR-TAF

Aeropuertos :

Aeropuerto Internacional de Bagdad

Bagdad, Iraq

latitud: 33-15-45N, longitud: 44-14-04E, altitud: 35 m

Observación

El informe se hizo hace 22 minutos, a las 06:00 UTC
Viento 6 kt del sureste
Temperatura 13°C
Humedad 94%
Presión 1021 hPa
Visibilidad: 2500 m
neblina

METAR: ORBI 130600Z 13006KT 2500 BR NSC 13/12 Q1021 NOSIG

Hora: 09:22 (06:22 UTC)

Pronóstico

El informe se hizo hace 1 hora y 22 minutos, a las 05:00 UTC
Pronóstico válido del 13 a las 06 UTC al 14 a las 06 UTC
Viento 6 kt del este-sureste
Visibilidad: 2500 m
neblina
Evolucionando progresivamente
del 13 a las 08 UTC al 13 a las 10 UTC
Visibilidad: 6000 m

TAF: ORBI 130500Z 1306/1406 12006KT 2500 BR NSC BECMG 1308/1310 6000

Observaciones y pronósticos meteorológicos de más de 4000 aeropuertos (mensajes METAR y TAF).

Los puntos amarillos y rojos representan las estaciones disponibles.

Ponga el ratón en el punto deseado para ver el nombre de la estación.

Haga clic para ver las observaciones y los pronósticos meteorológicos.

Para cambiar el mapa : haga clic en los botones verdes con una cruz de color negro para hacer un zoom, en el botón verde con un guión para alejar o en las flechas verdes para mapas adyacentes.


METAR-TAF: